Terminal Aerodrome Forecast
Issued by NWS Cleveland, OH

Home | Current Version | Previous Version | Graphics & Text | Print | Product List | Glossary On
Versions: 1 2 3 4 5 6 7 8 9 10 11 12 13 14 15 16 17 18 19 20 21 22 23 24 25 26 27
000
FTUS41 KCLE 192200 AAA
TAFCLE
TAF AMD
KCLE 192220Z 1922/2024 03006KT P6SM BKN012 OVC025
      TEMPO 1923/2001 3SM -SHRA OVC025
     FM200100 VRB03KT P6SM BKN050
     FM200800 00000KT 5SM BR BKN025
     FM201400 00000KT P6SM SCT035=

USA.gov is the U.S. government's official web portal to all federal, state and local government web resources and services.